Time;durP1;ratioP1;P1;durP2;ratioP2;P2;SDS_P1;SDS_P2;PMS_P1;PMS_P2;Temp;Humidity;BMP_temperature;BMP_pressure;BME280_temperature;BME280_humidity;BME280_pressure;Samples;Min_cycle;Max_cycle;Signal;HPM_P1;HPM_P2
2021/11/04 00:02:09;;;;;;;;;22.00;19.25;;;;;9.61;64.40;100510.44;4982284;28;46263;-81
2021/11/04 00:04:34;;;;;;;;;22.00;18.75;;;;;9.59;64.46;100501.75;4982035;28;45287;-79
2021/11/04 00:07:00;;;;;;;;;16.00;15.50;;;;;9.61;64.57;100497.31;4979948;28;45475;-79
2021/11/04 00:09:25;;;;;;;;;21.00;18.50;;;;;9.60;64.47;100492.13;4980728;28;45248;-80
2021/11/04 00:11:51;;;;;;;;;17.50;15.25;;;;;9.62;64.34;100491.16;4981879;28;45330;-80
2021/11/04 00:14:17;;;;;;;;;16.00;16.00;;;;;9.64;64.31;100491.09;4964332;28;45425;-80
2021/11/04 00:16:42;;;;;;;;;19.00;17.75;;;;;9.63;64.47;100487.59;4981472;28;45428;-80
2021/11/04 00:19:07;;;;;;;;;19.50;19.00;;;;;9.64;64.44;100494.59;4981844;28;45416;-80
2021/11/04 00:21:33;;;;;;;;;19.25;17.50;;;;;9.63;64.40;100492.03;4982084;28;46264;-80
2021/11/04 00:23:58;;;;;;;;;18.75;18.25;;;;;9.63;64.45;100492.03;4982125;28;45450;-80
2021/11/04 00:26:24;;;;;;;;;19.50;17.25;;;;;9.64;64.36;100494.59;4973634;28;45480;-80
2021/11/04 00:28:49;;;;;;;;;20.50;18.00;;;;;9.64;64.21;100491.09;4962413;28;45215;-80
2021/11/04 00:31:15;;;;;;;;;21.50;18.75;;;;;9.65;64.38;100485.81;4962257;28;46087;-80
2021/11/04 00:33:43;;;;;;;;;19.00;17.50;;;;;9.68;64.22;100493.56;4962263;28;45347;-79
2021/11/04 00:36:09;;;;;;;;;18.50;17.50;;;;;9.68;64.27;100480.44;4976883;28;45504;-80
2021/11/04 00:38:35;;;;;;;;;20.50;18.50;;;;;9.68;64.47;100485.69;4981737;28;45319;-80
2021/11/04 00:41:00;;;;;;;;;24.00;22.75;;;;;9.67;64.36;100488.38;4981308;28;45631;-80
2021/11/04 00:43:26;;;;;;;;;25.50;23.50;;;;;9.66;64.32;100484.91;4981623;28;45356;-80
2021/11/04 00:45:51;;;;;;;;;28.25;24.50;;;;;9.66;64.01;100492.75;4963311;28;45385;-80
2021/11/04 00:48:17;;;;;;;;;30.75;25.00;;;;;9.65;64.42;100493.69;4981177;28;45376;-78
2021/11/04 00:50:42;;;;;;;;;36.50;31.25;;;;;9.63;64.25;100498.09;4981495;28;46304;-78
2021/11/04 00:53:07;;;;;;;;;35.00;33.25;;;;;9.63;64.37;100503.34;4974457;28;45316;-78
2021/11/04 00:55:33;;;;;;;;;35.00;32.75;;;;;9.60;64.45;100507.84;4967998;28;45347;-78
2021/11/04 00:57:59;;;;;;;;;35.50;32.50;;;;;9.59;64.79;100507.00;4981478;28;45479;-78
2021/11/04 01:00:24;;;;;;;;;33.50;29.75;;;;;9.60;64.80;100511.34;4981273;28;46224;-78
2021/11/04 01:02:50;;;;;;;;;34.50;28.50;;;;;9.60;64.69;100513.97;4981294;28;45359;-79
2021/11/04 01:05:16;;;;;;;;;23.00;20.25;;;;;9.63;65.25;100513.84;4978286;28;45357;-76
2021/11/04 01:07:42;;;;;;;;;19.25;18.50;;;;;9.62;64.64;100498.16;4966674;28;45541;-76
2021/11/04 01:10:08;;;;;;;;;17.00;14.00;;;;;9.63;64.64;100503.34;4964748;28;45361;-77
2021/11/04 01:12:33;;;;;;;;;18.50;18.25;;;;;9.65;64.79;100506.81;4981174;28;45243;-76
2021/11/04 01:14:59;;;;;;;;;18.25;15.00;;;;;9.67;64.76;100497.13;4980605;28;45565;-78
2021/11/04 01:17:24;;;;;;;;;17.75;17.00;;;;;9.70;64.99;100497.91;4980987;28;45476;-77
2021/11/04 01:19:49;;;;;;;;;24.25;21.75;;;;;9.74;64.48;100503.00;4980835;28;45432;-79
2021/11/04 01:22:15;;;;;;;;;27.75;23.50;;;;;9.73;64.60;100497.81;4981155;28;45345;-79
2021/11/04 01:24:41;;;;;;;;;33.75;26.75;;;;;9.73;64.42;100495.19;4981281;28;45403;-79
2021/11/04 01:27:06;;;;;;;;;35.00;26.25;;;;;9.73;64.58;100488.16;4972802;28;45510;-79
2021/11/04 01:29:31;;;;;;;;;28.50;24.75;;;;;9.75;64.59;100496.00;4981068;28;46274;-79
2021/11/04 01:31:57;;;;;;;;;33.00;22.50;;;;;9.77;64.65;100496.81;4980374;28;45470;-78
2021/11/04 01:34:22;;;;;;;;;22.75;20.50;;;;;9.79;64.54;100497.59;4980663;28;45329;-79
2021/11/04 01:36:48;;;;;;;;;28.25;25.25;;;;;9.75;64.47;100498.63;4963258;28;46043;-79
2021/11/04 01:39:13;;;;;;;;;17.50;17.50;;;;;9.71;64.03;100502.25;4973464;28;45599;-79
2021/11/04 01:41:38;;;;;;;;;22.50;18.50;;;;;9.70;64.32;100501.41;4979253;28;45487;-79
2021/11/04 01:44:04;;;;;;;;;29.25;23.50;;;;;9.71;64.18;100513.59;4979493;28;45257;-79
2021/11/04 01:46:29;;;;;;;;;26.00;24.50;;;;;9.69;64.19;100510.19;4980728;28;45178;-79
2021/11/04 01:48:55;;;;;;;;;26.00;24.75;;;;;9.69;64.26;100515.44;4961541;28;45251;-79
2021/11/04 01:51:22;;;;;;;;;39.75;30.25;;;;;9.68;63.91;100519.81;4961258;28;45232;-79
2021/11/04 01:53:48;;;;;;;;;31.25;27.75;;;;;9.68;64.28;100522.44;4974805;28;45552;-80
2021/11/04 01:56:14;;;;;;;;;31.25;27.25;;;;;9.71;64.46;100518.84;4980285;28;45294;-79
2021/11/04 01:58:39;;;;;;;;;33.00;27.25;;;;;9.71;64.24;100516.22;4980485;28;46259;-79
2021/11/04 02:01:05;;;;;;;;;33.00;30.50;;;;;9.71;63.92;100518.00;4980651;28;45295;-79
2021/11/04 02:03:57;;;;;;;;;35.00;28.00;;;;;9.72;64.22;100517.09;4978696;28;45522;-79
2021/11/04 02:06:51;;;;;;;;;27.50;24.25;;;;;9.71;64.29;100513.59;4980105;28;45819;-79
2021/11/04 02:09:29;;;;;;;;;26.00;23.75;;;;;9.68;64.21;100511.06;4960770;28;46355;-80
2021/11/04 02:12:02;;;;;;;;;24.50;22.50;;;;;9.63;64.33;100498.09;4960672;28;45405;-77
2021/11/04 02:14:32;;;;;;;;;25.00;22.00;;;;;9.62;63.88;100501.66;4977876;28;45250;-77
2021/11/04 02:16:59;;;;;;;;;26.50;22.00;;;;;9.61;64.18;100506.94;4979146;28;45420;-77
2021/11/04 02:19:37;;;;;;;;;23.50;20.25;;;;;9.58;64.19;100510.50;4979320;28;45530;-77
2021/11/04 02:22:05;;;;;;;;;21.50;18.50;;;;;9.52;64.30;100505.47;4980636;28;45730;-77
2021/11/04 02:24:42;;;;;;;;;27.00;21.75;;;;;9.51;64.44;100519.50;4969516;28;45418;-77
2021/11/04 02:27:10;;;;;;;;;66.25;46.75;;;;;9.46;64.56;100527.50;4971244;28;45432;-76
2021/11/04 02:29:39;;;;;;;;;55.00;38.25;;;;;9.43;64.41;100533.72;4960528;28;45483;-76
2021/11/04 02:32:07;;;;;;;;;96.00;70.75;;;;;9.41;64.21;100530.28;4966684;28;45569;-76
2021/11/04 02:34:34;;;;;;;;;85.25;65.25;;;;;9.38;64.29;100530.41;4964493;28;45535;-76
2021/11/04 02:37:01;;;;;;;;;81.25;60.50;;;;;9.34;64.04;100528.75;4960292;28;45172;-77
2021/11/04 02:39:29;;;;;;;;;61.75;46.25;;;;;9.32;64.19;100530.56;4960423;28;45411;-77
2021/11/04 02:41:54;;;;;;;;;43.75;32.75;;;;;9.30;64.17;100535.88;4960252;28;45795;-77
2021/11/04 02:44:21;;;;;;;;;30.50;27.25;;;;;9.28;64.61;100535.06;4975539;28;45472;-77
2021/11/04 02:46:47;;;;;;;;;35.00;30.00;;;;;9.25;64.77;100529.06;4979471;28;45814;-77
2021/11/04 02:49:12;;;;;;;;;38.75;32.00;;;;;9.22;64.67;100528.25;4979422;28;45408;-77
2021/11/04 02:51:38;;;;;;;;;36.25;31.75;;;;;9.25;64.49;100526.44;4977704;28;45397;-77
2021/11/04 02:54:09;;;;;;;;;34.75;30.25;;;;;9.23;64.27;100531.72;4977355;28;45325;-77
2021/11/04 02:56:47;;;;;;;;;25.00;23.00;;;;;9.20;64.90;100537.94;4978774;28;45500;-79
2021/11/04 02:59:16;;;;;;;;;31.50;29.75;;;;;9.17;64.76;100548.50;4979477;28;45401;-79
2021/11/04 03:01:47;;;;;;;;;27.75;23.50;;;;;9.13;64.98;100546.88;4978228;28;45827;-79
2021/11/04 03:04:15;;;;;;;;;26.00;24.50;;;;;9.15;64.86;100552.06;4968245;28;45436;-78
2021/11/04 03:06:41;;;;;;;;;27.00;25.00;;;;;9.17;65.19;100548.50;4960089;28;45470;-78
2021/11/04 03:09:06;;;;;;;;;27.25;25.25;;;;;9.17;65.07;100548.50;4959947;28;45461;-78
2021/11/04 03:11:32;;;;;;;;;35.75;28.25;;;;;9.20;65.21;100553.66;4971690;28;45972;-78
2021/11/04 03:13:57;;;;;;;;;36.50;30.50;;;;;9.18;65.12;100547.63;4979650;28;45407;-78
2021/11/04 03:16:24;;;;;;;;;31.50;28.75;;;;;9.20;65.53;100548.41;4978931;28;45183;-78
2021/11/04 03:18:50;;;;;;;;;33.25;29.25;;;;;9.23;65.16;100550.94;4959789;28;45489;-77
2021/11/04 03:21:16;;;;;;;;;33.25;30.75;;;;;9.22;65.35;100546.59;4969756;28;45424;-77
2021/11/04 03:23:42;;;;;;;;;29.25;25.75;;;;;9.22;65.19;100549.22;4962029;28;45340;-77
2021/11/04 03:26:10;;;;;;;;;32.00;28.00;;;;;9.24;65.35;100543.94;4976905;28;45361;-77
2021/11/04 03:28:36;;;;;;;;;33.00;28.50;;;;;9.25;65.36;100542.16;4960039;28;45615;-76
2021/11/04 03:31:02;;;;;;;;;34.75;27.75;;;;;9.25;65.34;100547.41;4968066;28;45269;-76
2021/11/04 03:33:29;;;;;;;;;27.25;24.25;;;;;9.28;65.20;100555.19;4978711;28;45381;-76
2021/11/04 03:35:56;;;;;;;;;26.00;22.75;;;;;9.29;65.24;100556.91;4982443;28;45361;-77
2021/11/04 03:38:23;;;;;;;;;23.25;22.25;;;;;9.28;65.20;100556.06;4978501;28;45380;-77
2021/11/04 03:40:49;;;;;;;;;26.50;25.75;;;;;9.32;65.23;100559.44;4981604;28;45399;-77
2021/11/04 03:43:15;;;;;;;;;29.75;26.00;;;;;9.31;65.31;100561.19;4982889;28;45266;-77
2021/11/04 03:45:41;;;;;;;;;26.00;25.50;;;;;9.33;64.79;100563.78;4982554;28;45570;-78
2021/11/04 03:48:07;;;;;;;;;26.75;26.00;;;;;9.36;65.48;100568.91;4981636;28;46494;-79
2021/11/04 03:50:36;;;;;;;;;32.75;28.00;;;;;9.41;65.35;100569.63;4982309;28;45341;-79
2021/11/04 03:53:02;;;;;;;;;28.25;24.75;;;;;9.43;65.01;100569.59;4982832;28;45482;-79
2021/11/04 03:55:31;;;;;;;;;30.75;26.00;;;;;9.44;64.84;100572.16;4964578;28;45378;-79
2021/11/04 03:57:57;;;;;;;;;27.00;22.75;;;;;9.49;65.15;100573.78;4967459;28;45366;-79
2021/11/04 04:00:23;;;;;;;;;22.00;22.00;;;;;9.55;65.31;100573.63;4980478;28;45511;-79
2021/11/04 04:02:49;;;;;;;;;29.25;24.25;;;;;9.55;64.92;100563.13;4982043;28;45235;-80
2021/11/04 04:05:16;;;;;;;;;30.75;25.50;;;;;9.59;64.85;100572.59;4969948;28;45466;-80
2021/11/04 04:07:43;;;;;;;;;26.75;23.75;;;;;9.62;64.67;100580.38;4962678;28;46595;-78
2021/11/04 04:10:09;;;;;;;;;29.75;27.00;;;;;9.64;64.84;100572.44;4964919;28;45398;-78
2021/11/04 04:12:34;;;;;;;;;23.75;22.00;;;;;9.66;64.90;100566.25;4982403;28;45187;-78
2021/11/04 04:14:59;;;;;;;;;24.00;20.75;;;;;9.68;64.70;100569.69;4982332;28;45531;-78
2021/11/04 04:17:25;;;;;;;;;25.75;22.75;;;;;9.70;64.70;100569.66;4975364;28;45253;-80
2021/11/04 04:19:51;;;;;;;;;22.00;21.75;;;;;9.73;64.69;100572.16;4962178;28;45362;-80
2021/11/04 04:22:18;;;;;;;;;23.25;23.25;;;;;9.76;64.76;100565.94;4982211;28;45252;-79
2021/11/04 04:24:43;;;;;;;;;26.00;22.25;;;;;9.75;64.87;100566.88;4978516;28;45401;-78
2021/11/04 04:27:09;;;;;;;;;27.50;24.00;;;;;9.77;64.77;100568.53;4974328;28;46209;-83
2021/11/04 04:29:34;;;;;;;;;23.00;22.25;;;;;9.83;64.75;100579.75;4963614;28;45457;-81
2021/11/04 04:31:59;;;;;;;;;26.75;21.50;;;;;9.85;65.31;100581.38;4967849;28;45376;-80
2021/11/04 04:34:26;;;;;;;;;26.00;22.75;;;;;9.86;65.04;100585.75;4978046;28;45296;-81
2021/11/04 04:36:51;;;;;;;;;21.00;17.50;;;;;9.89;65.05;100590.91;4981587;28;45419;-82
2021/11/04 04:39:17;;;;;;;;;19.25;16.50;;;;;9.89;64.87;100592.66;4963136;28;45444;-81
2021/11/04 04:41:42;;;;;;;;;24.25;20.75;;;;;9.91;64.87;100596.09;4981086;28;45472;-81
2021/11/04 04:44:07;;;;;;;;;26.25;22.00;;;;;9.90;65.21;100597.84;4981694;28;45438;-81
2021/11/04 04:46:33;;;;;;;;;20.75;19.50;;;;;9.92;65.54;100602.22;4963731;28;45904;-82
2021/11/04 04:48:58;;;;;;;;;25.00;21.75;;;;;9.94;65.58;100603.00;4978579;28;45490;-81
2021/11/04 04:51:23;;;;;;;;;21.50;20.00;;;;;9.96;65.72;100612.56;4981802;28;45347;-81
2021/11/04 04:53:49;;;;;;;;;23.50;20.25;;;;;9.97;65.76;100613.44;4981555;28;45305;-81
2021/11/04 04:56:14;;;;;;;;;20.50;19.00;;;;;9.97;65.72;100611.66;4981061;28;46296;-82
2021/11/04 04:58:40;;;;;;;;;18.50;17.25;;;;;9.93;65.73;100610.03;4980706;28;45224;-81
2021/11/04 05:01:05;;;;;;;;;25.25;20.50;;;;;9.93;66.03;100606.53;4967619;28;45926;-81
2021/11/04 05:03:30;;;;;;;;;20.00;20.00;;;;;9.98;66.18;100612.50;4963024;28;45385;-79
2021/11/04 05:05:56;;;;;;;;;20.50;20.50;;;;;9.99;66.23;100607.22;4981234;28;46340;-79
2021/11/04 05:08:21;;;;;;;;;24.25;19.00;;;;;10.01;66.24;100601.91;4980579;28;45203;-80
2021/11/04 05:10:47;;;;;;;;;20.00;18.50;;;;;10.04;66.31;100599.19;4980897;28;45252;-80
2021/11/04 05:13:12;;;;;;;;;26.75;24.00;;;;;10.05;66.41;100608.75;4980305;28;45199;-80
2021/11/04 05:15:38;;;;;;;;;22.25;21.25;;;;;10.06;66.12;100613.13;4981042;28;45368;-81
2021/11/04 05:18:07;;;;;;;;;23.00;21.75;;;;;10.07;66.41;100612.22;4980337;28;45324;-80
2021/11/04 05:20:33;;;;;;;;;26.00;23.25;;;;;10.09;66.50;100612.16;4978843;28;45484;-80
2021/11/04 05:22:59;;;;;;;;;20.75;20.25;;;;;10.06;66.07;100605.25;4980846;28;45563;-80
2021/11/04 05:25:24;;;;;;;;;21.75;20.25;;;;;10.08;66.59;100607.81;4970784;28;45320;-82
2021/11/04 05:27:50;;;;;;;;;22.50;21.00;;;;;10.06;66.57;100600.00;4961715;28;45257;-82
2021/11/04 05:30:17;;;;;;;;;23.75;21.25;;;;;10.05;66.50;100600.88;4969517;28;45390;-81
2021/11/04 05:32:43;;;;;;;;;25.50;21.00;;;;;10.06;66.41;100609.63;4980115;28;45228;-82
2021/11/04 05:35:09;;;;;;;;;23.75;20.50;;;;;10.05;66.42;100616.63;4980755;28;45381;-81
2021/11/04 05:37:34;;;;;;;;;25.25;23.00;;;;;10.02;66.44;100619.38;4980876;28;45483;-82
2021/11/04 05:40:00;;;;;;;;;22.00;19.25;;;;;10.00;66.72;100622.03;4980888;28;45448;-82
2021/11/04 05:42:25;;;;;;;;;29.25;24.25;;;;;10.00;66.78;100624.66;4979855;28;45546;-82
2021/11/04 05:44:50;;;;;;;;;20.75;19.50;;;;;9.98;66.69;100620.38;4980773;28;45419;-82
2021/11/04 05:47:17;;;;;;;;;20.75;20.00;;;;;9.95;66.87;100631.00;4980338;28;45441;-81
2021/11/04 05:49:43;;;;;;;;;21.00;20.00;;;;;9.95;67.06;100633.63;4980522;28;45429;-80
2021/11/04 05:52:09;;;;;;;;;21.00;21.00;;;;;9.94;67.06;100637.16;4980637;28;45612;-80
2021/11/04 05:54:35;;;;;;;;;19.50;19.00;;;;;9.93;67.23;100625.78;4972198;28;45639;-77
2021/11/04 05:57:01;;;;;;;;;22.25;21.25;;;;;9.93;67.14;100631.03;4980492;28;45243;-83
2021/11/04 05:59:26;;;;;;;;;16.75;14.25;;;;;9.95;67.08;100623.97;4978381;28;45146;-80
2021/11/04 06:01:53;;;;;;;;;21.50;21.25;;;;;9.95;67.15;100631.00;4972791;28;45461;-77
2021/11/04 06:04:19;;;;;;;;;22.50;20.75;;;;;9.98;67.34;100638.75;4975831;28;45558;-77
2021/11/04 06:06:45;;;;;;;;;20.25;20.25;;;;;9.99;67.18;100645.75;4980505;28;45464;-77
2021/11/04 06:09:10;;;;;;;;;24.50;22.50;;;;;9.96;67.09;100640.56;4978281;28;45317;-77
2021/11/04 06:11:36;;;;;;;;;20.00;16.75;;;;;9.96;67.23;100640.56;4977712;28;45446;-77
2021/11/04 06:14:01;;;;;;;;;26.00;21.75;;;;;9.95;67.11;100654.63;4980019;28;45471;-77
2021/11/04 06:16:27;;;;;;;;;23.00;22.00;;;;;9.90;67.63;100645.09;4978572;28;45539;-75
2021/11/04 06:18:52;;;;;;;;;22.00;19.75;;;;;9.93;67.46;100648.53;4978053;28;45449;-75
2021/11/04 06:21:18;;;;;;;;;22.75;21.25;;;;;9.93;67.99;100653.78;4979211;28;45387;-75
2021/11/04 06:23:43;;;;;;;;;19.75;18.25;;;;;9.92;67.71;100659.97;4979085;28;46490;-75
2021/11/04 06:26:09;;;;;;;;;24.50;22.25;;;;;9.94;68.13;100663.41;4961373;28;45772;-75
2021/11/04 06:28:34;;;;;;;;;23.25;22.00;;;;;9.90;68.11;100660.88;4962586;28;45306;-75
2021/11/04 06:31:00;;;;;;;;;24.00;19.50;;;;;9.94;68.05;100668.66;4973463;28;45175;-76
2021/11/04 06:33:25;;;;;;;;;19.00;15.00;;;;;9.92;68.42;100665.22;4974414;28;46674;-76
2021/11/04 06:35:53;;;;;;;;;21.00;20.50;;;;;9.94;68.49;100671.28;4973799;28;45515;-76
2021/11/04 06:38:19;;;;;;;;;18.00;15.75;;;;;9.96;68.45;100678.19;4968183;28;45380;-76
2021/11/04 06:40:44;;;;;;;;;27.00;20.75;;;;;9.97;68.52;100668.56;4978480;28;45625;-76
2021/11/04 06:43:12;;;;;;;;;26.00;25.00;;;;;10.00;68.59;100669.31;4979747;28;45633;-76
2021/11/04 06:45:40;;;;;;;;;29.50;27.00;;;;;10.02;68.58;100671.91;4980319;28;45378;-76
2021/11/04 06:48:13;;;;;;;;;44.00;32.50;;;;;10.05;68.83;100678.84;4979924;28;45231;-76
2021/11/04 06:50:40;;;;;;;;;48.75;39.25;;;;;10.05;68.56;100682.28;4976433;28;45392;-76
2021/11/04 06:53:11;;;;;;;;;35.00;32.75;;;;;10.06;68.68;100676.16;4970896;28;45602;-76
2021/11/04 06:55:39;;;;;;;;;31.25;28.25;;;;;10.08;68.80;100676.09;4974953;28;45416;-76
2021/11/04 06:58:05;;;;;;;;;43.50;36.50;;;;;10.12;68.89;100683.81;4980004;28;45230;-76
2021/11/04 07:00:33;;;;;;;;;47.75;35.75;;;;;10.16;68.48;100692.47;4961422;28;45604;-75
2021/11/04 07:03:27;;;;;;;;;28.50;26.50;;;;;10.17;68.55;100688.94;4975104;28;46267;-75
2021/11/04 07:05:59;;;;;;;;;43.75;36.75;;;;;10.21;68.72;100694.94;4981686;28;46367;-75
2021/11/04 07:08:27;;;;;;;;;32.25;31.25;;;;;10.23;68.98;100695.75;4979011;28;45429;-75
2021/11/04 07:11:01;;;;;;;;;70.25;50.75;;;;;10.29;68.50;100707.84;4981014;28;45417;-75
2021/11/04 07:13:29;;;;;;;;;71.50;50.00;;;;;10.31;68.87;100706.88;4970568;28;46397;-75
2021/11/04 07:15:56;;;;;;;;;53.75;39.75;;;;;10.35;68.94;100715.50;4969649;28;45447;-75
2021/11/04 07:18:22;;;;;;;;;43.00;34.25;;;;;10.37;68.89;100718.94;4977998;28;45469;-75
2021/11/04 07:20:55;;;;;;;;;35.00;31.00;;;;;10.39;68.82;100711.03;4982699;28;45499;-76
2021/11/04 07:23:38;;;;;;;;;22.00;20.50;;;;;10.42;68.65;100721.44;4981365;28;45367;-75
2021/11/04 07:26:07;;;;;;;;;59.00;43.25;;;;;10.47;68.91;100732.63;4981187;28;45291;-75
2021/11/04 07:28:38;;;;;;;;;27.00;22.50;;;;;10.51;68.84;100736.94;4969637;28;45399;-76
2021/11/04 07:31:07;;;;;;;;;59.75;44.75;;;;;10.52;68.85;100732.53;4964499;28;45240;-76
2021/11/04 07:33:34;;;;;;;;;23.50;18.25;;;;;10.53;69.21;100743.00;4982548;28;45495;-76
2021/11/04 07:36:01;;;;;;;;;34.00;27.50;;;;;10.51;68.72;100738.69;4982930;28;45353;-76
2021/11/04 07:38:27;;;;;;;;;26.00;24.25;;;;;10.53;69.06;100742.13;4978625;28;45255;-75
2021/11/04 07:40:52;;;;;;;;;28.00;21.25;;;;;10.54;68.94;100742.06;4965096;28;45265;-76
2021/11/04 07:43:18;;;;;;;;;27.00;24.50;;;;;10.57;68.71;100760.38;4981932;28;46329;-76
2021/11/04 07:45:44;;;;;;;;;47.25;35.25;;;;;10.58;68.70;100763.88;4980556;28;45425;-76
2021/11/04 07:48:10;;;;;;;;;15.25;11.50;;;;;10.59;69.06;100760.34;4982389;28;45358;-76
2021/11/04 07:50:36;;;;;;;;;28.00;21.25;;;;;10.58;68.87;100758.59;4982533;28;45262;-76
2021/11/04 07:53:01;;;;;;;;;24.50;22.00;;;;;10.60;69.03;100763.81;4981381;28;45457;-76
2021/11/04 07:55:27;;;;;;;;;27.50;22.25;;;;;10.60;69.08;100766.44;4975457;28;45447;-76
2021/11/04 07:57:53;;;;;;;;;35.25;28.50;;;;;10.61;68.89;100776.91;4975293;28;45354;-76
2021/11/04 08:00:21;;;;;;;;;15.75;14.75;;;;;10.61;68.91;100768.16;4963506;28;47181;-76
2021/11/04 08:02:46;;;;;;;;;41.25;31.25;;;;;10.62;69.25;100769.91;4968772;28;45317;-76
2021/11/04 08:05:15;;;;;;;;;17.50;16.00;;;;;10.63;68.87;100780.34;4963007;28;45236;-76
2021/11/04 08:07:41;;;;;;;;;43.00;33.75;;;;;10.64;69.35;100782.06;4957114;28;45385;-76
2021/11/04 08:10:09;;;;;;;;;17.75;15.00;;;;;10.65;69.29;100782.91;4981679;28;45616;-76
2021/11/04 08:12:35;;;;;;;;;45.25;33.50;;;;;10.67;69.40;100779.34;4981349;28;45836;-75
2021/11/04 08:15:03;;;;;;;;;26.25;21.50;;;;;10.67;69.40;100784.59;4982109;28;45261;-75
2021/11/04 08:17:29;;;;;;;;;17.50;13.75;;;;;10.70;69.16;100788.88;4981135;28;45270;-76
2021/11/04 08:19:54;;;;;;;;;52.75;39.00;;;;;10.74;69.42;100793.13;4962281;28;47234;-76
2021/11/04 08:22:20;;;;;;;;;20.75;18.25;;;;;10.76;69.22;100796.59;4949024;28;48235;-76
2021/11/04 08:24:47;;;;;;;;;14.75;13.25;;;;;10.78;68.97;100802.66;4962071;28;45901;-76
2021/11/04 08:27:14;;;;;;;;;17.75;15.25;;;;;10.82;68.96;100799.91;4976498;28;45453;-78
2021/11/04 08:29:39;;;;;;;;;14.50;11.50;;;;;10.88;69.04;100810.22;4954534;28;46645;-75
2021/11/04 08:32:05;;;;;;;;;19.00;17.25;;;;;10.94;69.32;100806.56;4979033;28;45231;-75
2021/11/04 08:34:31;;;;;;;;;46.00;33.00;;;;;10.96;68.55;100807.34;4963643;28;45272;-75
2021/11/04 08:36:56;;;;;;;;;32.00;27.00;;;;;10.99;68.81;100820.38;4968011;28;45227;-76
2021/11/04 08:39:22;;;;;;;;;46.50;36.00;;;;;10.99;68.62;100821.25;4981877;28;45227;-75
2021/11/04 08:41:48;;;;;;;;;21.25;19.50;;;;;11.02;68.70;100826.41;4981234;28;45458;-75
2021/11/04 08:44:13;;;;;;;;;17.00;13.50;;;;;11.06;68.72;100821.91;4981922;28;45285;-76
2021/11/04 08:46:38;;;;;;;;;34.25;30.75;;;;;11.13;68.67;100827.81;4979954;28;45666;-75
2021/11/04 08:49:04;;;;;;;;;17.00;12.25;;;;;11.15;68.62;100826.00;4971527;28;45552;-75
2021/11/04 08:51:30;;;;;;;;;22.25;19.25;;;;;11.18;68.37;100825.91;4962126;28;45381;-76
2021/11/04 08:53:57;;;;;;;;;15.00;13.75;;;;;11.20;68.11;100831.09;4965283;28;45568;-76
2021/11/04 08:56:22;;;;;;;;;11.75;10.50;;;;;11.20;68.20;100828.47;4971739;28;45639;-76
2021/11/04 08:58:47;;;;;;;;;11.00;10.00;;;;;11.21;68.00;100835.47;4967137;28;45412;-75
2021/11/04 09:01:14;;;;;;;;;25.25;19.25;;;;;11.21;67.95;100835.47;4975200;28;46445;-76
2021/11/04 09:03:40;;;;;;;;;11.50;10.75;;;;;11.25;67.88;100840.56;4960925;28;45823;-76
2021/11/04 09:06:05;;;;;;;;;20.50;17.75;;;;;11.24;67.57;100836.19;4961785;28;45241;-76
2021/11/04 09:08:31;;;;;;;;;11.75;10.75;;;;;11.25;67.86;100850.22;4964034;28;45390;-75
2021/11/04 09:10:56;;;;;;;;;13.25;12.25;;;;;11.22;67.85;100845.91;4975674;28;46093;-75
2021/11/04 09:13:22;;;;;;;;;16.00;12.75;;;;;11.23;68.01;100855.53;4968421;28;45289;-75
2021/11/04 09:15:47;;;;;;;;;18.00;16.50;;;;;11.25;67.96;100853.72;4942903;28;45487;-78
2021/11/04 09:18:13;;;;;;;;;11.00;9.75;;;;;11.28;67.59;100862.41;4961343;28;45264;-75
2021/11/04 09:20:38;;;;;;;;;17.00;16.75;;;;;11.31;67.74;100863.16;4977974;28;46986;-75
2021/11/04 09:23:04;;;;;;;;;5.50;5.50;;;;;11.29;67.19;100859.72;4978580;28;45356;-76
2021/11/04 09:25:30;;;;;;;;;7.50;7.25;;;;;11.30;67.39;100863.22;4966922;28;45302;-76
2021/11/04 09:27:56;;;;;;;;;13.00;9.25;;;;;11.36;67.20;100868.25;4969232;28;45507;-75
2021/11/04 09:30:23;;;;;;;;;11.50;8.75;;;;;11.38;67.29;100865.59;4960540;28;46423;-76
2021/11/04 09:32:48;;;;;;;;;10.75;9.75;;;;;11.40;67.50;100874.28;4955935;28;45433;-75
2021/11/04 09:35:14;;;;;;;;;13.25;12.00;;;;;11.47;67.42;100875.81;4954620;28;45544;-76
2021/11/04 09:37:41;;;;;;;;;9.25;8.00;;;;;11.51;67.32;100869.50;4970300;28;45810;-76
2021/11/04 09:40:07;;;;;;;;;10.75;10.50;;;;;11.58;67.08;100875.44;4966212;28;45298;-76
2021/11/04 09:42:34;;;;;;;;;14.00;11.00;;;;;11.59;67.04;100867.47;4974538;28;45169;-76
2021/11/04 09:45:00;;;;;;;;;13.50;8.50;;;;;11.64;66.50;100872.56;4960993;28;45346;-76
2021/11/04 09:47:28;;;;;;;;;8.75;7.50;;;;;11.66;66.89;100878.63;4962447;28;45646;-76
2021/11/04 09:49:58;;;;;;;;;13.50;11.75;;;;;11.69;66.52;100875.91;4972197;28;46663;-76
2021/11/04 09:52:26;;;;;;;;;9.75;7.50;;;;;11.73;66.63;100878.44;4960495;28;45476;-76
2021/11/04 09:54:54;;;;;;;;;9.00;8.25;;;;;11.72;66.65;100877.56;4977751;28;45444;-76
2021/11/04 09:57:20;;;;;;;;;6.50;5.75;;;;;11.78;66.81;100885.25;4980370;28;45488;-76
2021/11/04 09:59:46;;;;;;;;;7.00;7.00;;;;;11.81;66.26;100886.91;4979519;28;46470;-76
2021/11/04 10:02:23;;;;;;;;;10.00;7.00;;;;;11.81;66.07;100892.16;4975997;28;45428;-76
2021/11/04 10:04:50;;;;;;;;;6.50;5.75;;;;;11.84;65.27;100884.16;4959840;28;45477;-76
2021/11/04 10:07:17;;;;;;;;;6.50;6.50;;;;;11.81;65.84;100887.78;4959077;28;45469;-76
2021/11/04 10:09:43;;;;;;;;;7.75;6.00;;;;;11.86;65.72;100895.50;4959317;28;46467;-76
2021/11/04 10:12:14;;;;;;;;;1.25;0.50;;;;;11.86;65.68;100895.50;4967508;28;45568;-76
2021/11/04 10:14:41;;;;;;;;;7.75;6.75;;;;;11.90;65.48;100902.38;4969477;28;46983;-76
2021/11/04 10:17:37;;;;;;;;;6.00;4.75;;;;;11.96;65.24;100900.44;4978801;28;45504;-76
2021/11/04 10:20:22;;;;;;;;;7.50;6.75;;;;;11.98;65.17;100898.59;4977951;28;46287;-76
2021/11/04 10:23:06;;;;;;;;;7.00;4.00;;;;;11.99;65.15;100908.22;4959984;28;45752;-76
2021/11/04 10:25:32;;;;;;;;;4.25;4.25;;;;;12.02;65.06;100910.75;4968594;28;45361;-76
2021/11/04 10:27:58;;;;;;;;;4.00;4.00;;;;;12.00;64.19;100902.91;4976853;28;45577;-77
2021/11/04 10:30:39;;;;;;;;;9.00;6.50;;;;;12.01;64.86;100915.16;4978744;28;45432;-77
2021/11/04 10:33:32;;;;;;;;;11.00;9.00;;;;;12.06;64.87;100906.22;4957461;28;45753;-76
2021/11/04 10:36:29;;;;;;;;;5.00;5.00;;;;;12.11;64.38;100915.69;4977794;28;45613;-76
2021/11/04 10:38:59;;;;;;;;;6.00;5.50;;;;;12.11;64.09;100918.31;4939572;28;45733;-76
2021/11/04 10:41:31;;;;;;;;;7.00;6.50;;;;;12.13;64.02;100913.03;4970986;28;45551;-76
2021/11/04 10:44:09;;;;;;;;;6.75;5.00;;;;;12.12;64.00;100917.38;4980202;28;45745;-77
2021/11/04 10:46:48;;;;;;;;;10.50;9.00;;;;;12.09;63.47;100920.16;4970824;28;46226;-77
2021/11/04 10:49:15;;;;;;;;;9.00;5.00;;;;;12.11;62.94;100917.47;4973337;28;45472;-77
2021/11/04 10:51:40;;;;;;;;;7.00;5.50;;;;;12.13;63.37;100916.53;4960798;28;46090;-74
2021/11/04 10:54:08;;;;;;;;;6.00;5.00;;;;;12.17;63.50;100924.31;4977318;28;45373;-74
2021/11/04 10:56:36;;;;;;;;;6.00;4.25;;;;;12.21;63.55;100920.66;4968430;28;45403;-75
2021/11/04 10:59:13;;;;;;;;;8.75;5.00;;;;;12.20;61.71;100925.06;4941921;28;47272;-74
2021/11/04 11:01:42;;;;;;;;;4.50;4.50;;;;;12.23;62.56;100927.59;4968703;28;45399;-76
2021/11/04 11:04:12;;;;;;;;;7.00;6.00;;;;;12.29;62.78;100933.53;4976478;28;45769;-75
2021/11/04 11:06:41;;;;;;;;;3.25;3.25;;;;;12.29;62.20;100923.00;4978986;28;45171;-76
2021/11/04 11:09:10;;;;;;;;;5.00;5.00;;;;;12.34;62.44;100926.34;4978027;28;45358;-76
2021/11/04 11:11:37;;;;;;;;;5.75;4.75;;;;;12.35;62.49;100923.63;4978482;28;45345;-76
2021/11/04 11:14:03;;;;;;;;;4.75;4.50;;;;;12.41;62.32;100926.94;4976546;28;45210;-77
2021/11/04 11:16:29;;;;;;;;;4.00;3.50;;;;;12.46;62.19;100922.38;4979285;28;45415;-77
2021/11/04 11:18:58;;;;;;;;;6.00;4.00;;;;;12.55;61.79;100927.28;4976513;28;45528;-77